sensor_id;sensor_type;location;lat;lon;timestamp;P1;durP1;ratioP1;P2;durP2;ratioP2
7719;SDS011;3902;49.474;8.616;2023-12-14T00:02:15;9.67;;;8.77;;
7719;SDS011;3902;49.474;8.616;2023-12-14T00:04:40;9.30;;;8.40;;
7719;SDS011;3902;49.474;8.616;2023-12-14T00:07:06;9.10;;;8.20;;
7719;SDS011;3902;49.474;8.616;2023-12-14T00:09:31;9.00;;;8.20;;
7719;SDS011;3902;49.474;8.616;2023-12-14T00:11:57;9.80;;;8.83;;
7719;SDS011;3902;49.474;8.616;2023-12-14T00:14:22;9.80;;;8.80;;
7719;SDS011;3902;49.474;8.616;2023-12-14T00:16:48;10.10;;;9.03;;
7719;SDS011;3902;49.474;8.616;2023-12-14T00:19:14;10.50;;;9.50;;
7719;SDS011;3902;49.474;8.616;2023-12-14T00:21:39;9.93;;;8.73;;
7719;SDS011;3902;49.474;8.616;2023-12-14T00:24:08;10.00;;;9.10;;
7719;SDS011;3902;49.474;8.616;2023-12-14T00:26:33;9.17;;;8.37;;
7719;SDS011;3902;49.474;8.616;2023-12-14T00:29:00;8.60;;;7.80;;
7719;SDS011;3902;49.474;8.616;2023-12-14T00:31:26;9.10;;;8.20;;
7719;SDS011;3902;49.474;8.616;2023-12-14T00:33:51;9.40;;;8.50;;
7719;SDS011;3902;49.474;8.616;2023-12-14T00:36:17;8.90;;;8.10;;
7719;SDS011;3902;49.474;8.616;2023-12-14T00:38:44;9.53;;;8.63;;
7719;SDS011;3902;49.474;8.616;2023-12-14T00:41:10;9.30;;;8.40;;
7719;SDS011;3902;49.474;8.616;2023-12-14T00:43:35;9.60;;;8.37;;
7719;SDS011;3902;49.474;8.616;2023-12-14T00:46:01;9.40;;;8.27;;
7719;SDS011;3902;49.474;8.616;2023-12-14T00:48:27;9.17;;;8.27;;
7719;SDS011;3902;49.474;8.616;2023-12-14T00:50:53;8.73;;;7.67;;
7719;SDS011;3902;49.474;8.616;2023-12-14T00:53:18;9.43;;;8.40;;
7719;SDS011;3902;49.474;8.616;2023-12-14T00:55:44;8.93;;;8.23;;
7719;SDS011;3902;49.474;8.616;2023-12-14T00:58:10;8.87;;;8.07;;
7719;SDS011;3902;49.474;8.616;2023-12-14T01:00:38;9.27;;;8.37;;
7719;SDS011;3902;49.474;8.616;2023-12-14T01:03:03;9.37;;;8.53;;
7719;SDS011;3902;49.474;8.616;2023-12-14T01:05:29;8.27;;;7.57;;
7719;SDS011;3902;49.474;8.616;2023-12-14T01:07:54;8.53;;;7.80;;
7719;SDS011;3902;49.474;8.616;2023-12-14T01:10:20;9.23;;;8.33;;
7719;SDS011;3902;49.474;8.616;2023-12-14T01:12:45;10.20;;;9.30;;
7719;SDS011;3902;49.474;8.616;2023-12-14T01:15:11;9.70;;;8.67;;
7719;SDS011;3902;49.474;8.616;2023-12-14T01:17:36;12.50;;;9.10;;
7719;SDS011;3902;49.474;8.616;2023-12-14T01:20:05;9.00;;;8.10;;
7719;SDS011;3902;49.474;8.616;2023-12-14T01:22:32;9.40;;;8.60;;
7719;SDS011;3902;49.474;8.616;2023-12-14T01:24:58;10.37;;;9.37;;
7719;SDS011;3902;49.474;8.616;2023-12-14T01:27:24;10.40;;;9.30;;
7719;SDS011;3902;49.474;8.616;2023-12-14T01:29:49;11.03;;;9.90;;
7719;SDS011;3902;49.474;8.616;2023-12-14T01:32:15;10.40;;;9.07;;
7719;SDS011;3902;49.474;8.616;2023-12-14T01:34:40;9.27;;;8.40;;
7719;SDS011;3902;49.474;8.616;2023-12-14T01:37:06;9.40;;;8.60;;
7719;SDS011;3902;49.474;8.616;2023-12-14T01:39:32;10.17;;;9.20;;
7719;SDS011;3902;49.474;8.616;2023-12-14T01:41:58;10.30;;;9.33;;
7719;SDS011;3902;49.474;8.616;2023-12-14T01:44:23;9.63;;;8.73;;
7719;SDS011;3902;49.474;8.616;2023-12-14T01:46:49;10.00;;;9.10;;
7719;SDS011;3902;49.474;8.616;2023-12-14T01:49:14;9.77;;;8.80;;
7719;SDS011;3902;49.474;8.616;2023-12-14T01:51:40;8.97;;;8.10;;
7719;SDS011;3902;49.474;8.616;2023-12-14T01:54:05;9.23;;;8.33;;
7719;SDS011;3902;49.474;8.616;2023-12-14T01:56:31;9.93;;;8.97;;
7719;SDS011;3902;49.474;8.616;2023-12-14T01:58:56;9.23;;;8.30;;
7719;SDS011;3902;49.474;8.616;2023-12-14T02:01:30;8.40;;;7.70;;
7719;SDS011;3902;49.474;8.616;2023-12-14T02:04:06;9.57;;;8.67;;
7719;SDS011;3902;49.474;8.616;2023-12-14T02:06:33;10.20;;;9.20;;
7719;SDS011;3902;49.474;8.616;2023-12-14T02:08:58;8.87;;;8.07;;
7719;SDS011;3902;49.474;8.616;2023-12-14T02:11:24;8.80;;;8.00;;
7719;SDS011;3902;49.474;8.616;2023-12-14T02:13:49;11.67;;;9.13;;
7719;SDS011;3902;49.474;8.616;2023-12-14T02:16:15;8.70;;;7.90;;
7719;SDS011;3902;49.474;8.616;2023-12-14T02:18:40;9.27;;;8.47;;
7719;SDS011;3902;49.474;8.616;2023-12-14T02:21:06;9.47;;;8.57;;
7719;SDS011;3902;49.474;8.616;2023-12-14T02:23:31;9.07;;;8.27;;
7719;SDS011;3902;49.474;8.616;2023-12-14T02:25:58;10.27;;;9.00;;
7719;SDS011;3902;49.474;8.616;2023-12-14T02:28:23;9.40;;;8.50;;
7719;SDS011;3902;49.474;8.616;2023-12-14T02:30:49;9.77;;;8.90;;
7719;SDS011;3902;49.474;8.616;2023-12-14T02:33:14;10.03;;;9.03;;
7719;SDS011;3902;49.474;8.616;2023-12-14T02:35:40;9.37;;;8.47;;
7719;SDS011;3902;49.474;8.616;2023-12-14T02:38:05;9.70;;;8.90;;
7719;SDS011;3902;49.474;8.616;2023-12-14T02:40:31;10.30;;;9.40;;
7719;SDS011;3902;49.474;8.616;2023-12-14T02:42:56;9.27;;;8.43;;
7719;SDS011;3902;49.474;8.616;2023-12-14T02:45:22;10.10;;;9.10;;
7719;SDS011;3902;49.474;8.616;2023-12-14T02:47:47;9.87;;;8.93;;
7719;SDS011;3902;49.474;8.616;2023-12-14T02:50:14;9.80;;;8.90;;
7719;SDS011;3902;49.474;8.616;2023-12-14T02:52:40;10.47;;;9.47;;
7719;SDS011;3902;49.474;8.616;2023-12-14T02:55:06;9.40;;;8.60;;
7719;SDS011;3902;49.474;8.616;2023-12-14T02:57:31;9.80;;;8.90;;
7719;SDS011;3902;49.474;8.616;2023-12-14T02:59:57;10.23;;;9.30;;
7719;SDS011;3902;49.474;8.616;2023-12-14T03:02:23;9.77;;;8.70;;
7719;SDS011;3902;49.474;8.616;2023-12-14T03:04:48;9.40;;;8.50;;
7719;SDS011;3902;49.474;8.616;2023-12-14T03:07:14;9.30;;;8.30;;
7719;SDS011;3902;49.474;8.616;2023-12-14T03:09:39;9.03;;;8.10;;
7719;SDS011;3902;49.474;8.616;2023-12-14T03:12:09;9.53;;;8.63;;
7719;SDS011;3902;49.474;8.616;2023-12-14T03:14:35;10.63;;;8.77;;
7719;SDS011;3902;49.474;8.616;2023-12-14T03:17:01;9.93;;;8.93;;
7719;SDS011;3902;49.474;8.616;2023-12-14T03:19:27;9.33;;;8.43;;
7719;SDS011;3902;49.474;8.616;2023-12-14T03:21:53;9.47;;;8.57;;
7719;SDS011;3902;49.474;8.616;2023-12-14T03:24:19;10.03;;;9.13;;
7719;SDS011;3902;49.474;8.616;2023-12-14T03:26:45;9.73;;;8.93;;
7719;SDS011;3902;49.474;8.616;2023-12-14T03:29:11;9.57;;;8.67;;
7719;SDS011;3902;49.474;8.616;2023-12-14T03:31:36;9.20;;;8.30;;
7719;SDS011;3902;49.474;8.616;2023-12-14T03:34:02;10.00;;;8.80;;
7719;SDS011;3902;49.474;8.616;2023-12-14T03:36:27;9.83;;;8.93;;
7719;SDS011;3902;49.474;8.616;2023-12-14T03:38:53;10.50;;;9.50;;
7719;SDS011;3902;49.474;8.616;2023-12-14T03:41:19;9.53;;;8.63;;
7719;SDS011;3902;49.474;8.616;2023-12-14T03:43:45;9.50;;;8.60;;
7719;SDS011;3902;49.474;8.616;2023-12-14T03:46:11;8.80;;;8.10;;
7719;SDS011;3902;49.474;8.616;2023-12-14T03:48:36;8.73;;;8.03;;
7719;SDS011;3902;49.474;8.616;2023-12-14T03:51:02;9.57;;;8.57;;
7719;SDS011;3902;49.474;8.616;2023-12-14T03:53:29;10.50;;;8.87;;
7719;SDS011;3902;49.474;8.616;2023-12-14T03:55:54;10.23;;;9.20;;
7719;SDS011;3902;49.474;8.616;2023-12-14T03:58:20;10.47;;;9.40;;
7719;SDS011;3902;49.474;8.616;2023-12-14T04:00:46;9.00;;;8.20;;
7719;SDS011;3902;49.474;8.616;2023-12-14T04:03:11;10.30;;;9.37;;
7719;SDS011;3902;49.474;8.616;2023-12-14T04:05:37;9.27;;;8.43;;
7719;SDS011;3902;49.474;8.616;2023-12-14T04:08:03;10.30;;;9.27;;
7719;SDS011;3902;49.474;8.616;2023-12-14T04:10:29;9.67;;;8.73;;
7719;SDS011;3902;49.474;8.616;2023-12-14T04:12:55;9.20;;;8.40;;
7719;SDS011;3902;49.474;8.616;2023-12-14T04:15:21;9.50;;;8.60;;
7719;SDS011;3902;49.474;8.616;2023-12-14T04:17:46;9.50;;;8.60;;
7719;SDS011;3902;49.474;8.616;2023-12-14T04:20:12;9.17;;;8.37;;
7719;SDS011;3902;49.474;8.616;2023-12-14T04:22:40;8.60;;;7.90;;
7719;SDS011;3902;49.474;8.616;2023-12-14T04:25:09;8.93;;;8.13;;
7719;SDS011;3902;49.474;8.616;2023-12-14T04:27:35;8.57;;;7.77;;
7719;SDS011;3902;49.474;8.616;2023-12-14T04:30:00;9.20;;;8.30;;
7719;SDS011;3902;49.474;8.616;2023-12-14T04:32:26;9.00;;;8.10;;
7719;SDS011;3902;49.474;8.616;2023-12-14T04:34:52;9.13;;;8.17;;
7719;SDS011;3902;49.474;8.616;2023-12-14T04:37:17;9.53;;;8.63;;
7719;SDS011;3902;49.474;8.616;2023-12-14T04:39:43;8.97;;;8.10;;
7719;SDS011;3902;49.474;8.616;2023-12-14T04:42:09;9.93;;;8.93;;
7719;SDS011;3902;49.474;8.616;2023-12-14T04:44:34;9.70;;;8.80;;
7719;SDS011;3902;49.474;8.616;2023-12-14T04:47:00;9.23;;;8.33;;
7719;SDS011;3902;49.474;8.616;2023-12-14T04:49:25;9.37;;;8.37;;
7719;SDS011;3902;49.474;8.616;2023-12-14T04:51:51;9.63;;;8.70;;
7719;SDS011;3902;49.474;8.616;2023-12-14T04:54:16;10.70;;;9.70;;
7719;SDS011;3902;49.474;8.616;2023-12-14T04:56:45;9.57;;;8.60;;
7719;SDS011;3902;49.474;8.616;2023-12-14T04:59:11;11.20;;;10.07;;
7719;SDS011;3902;49.474;8.616;2023-12-14T05:01:36;9.60;;;8.70;;
7719;SDS011;3902;49.474;8.616;2023-12-14T05:04:02;10.70;;;9.70;;
7719;SDS011;3902;49.474;8.616;2023-12-14T05:06:27;10.53;;;9.43;;
7719;SDS011;3902;49.474;8.616;2023-12-14T05:08:54;11.40;;;10.20;;
7719;SDS011;3902;49.474;8.616;2023-12-14T05:11:19;9.83;;;8.93;;
7719;SDS011;3902;49.474;8.616;2023-12-14T05:13:45;10.30;;;9.30;;
7719;SDS011;3902;49.474;8.616;2023-12-14T05:16:14;10.40;;;9.30;;
7719;SDS011;3902;49.474;8.616;2023-12-14T05:18:40;11.10;;;10.00;;
7719;SDS011;3902;49.474;8.616;2023-12-14T05:21:05;9.53;;;8.60;;
7719;SDS011;3902;49.474;8.616;2023-12-14T05:23:31;10.47;;;9.57;;
7719;SDS011;3902;49.474;8.616;2023-12-14T05:25:56;10.20;;;9.20;;
7719;SDS011;3902;49.474;8.616;2023-12-14T05:28:22;10.00;;;9.00;;
7719;SDS011;3902;49.474;8.616;2023-12-14T05:30:48;10.60;;;9.00;;
7719;SDS011;3902;49.474;8.616;2023-12-14T05:33:13;9.87;;;8.97;;
7719;SDS011;3902;49.474;8.616;2023-12-14T05:35:39;10.33;;;9.33;;
7719;SDS011;3902;49.474;8.616;2023-12-14T05:38:05;10.27;;;9.30;;
7719;SDS011;3902;49.474;8.616;2023-12-14T05:40:30;10.60;;;9.60;;
7719;SDS011;3902;49.474;8.616;2023-12-14T05:42:56;12.33;;;11.10;;
7719;SDS011;3902;49.474;8.616;2023-12-14T05:45:22;11.60;;;10.33;;
7719;SDS011;3902;49.474;8.616;2023-12-14T05:47:47;11.23;;;10.10;;
7719;SDS011;3902;49.474;8.616;2023-12-14T05:50:13;11.70;;;10.00;;
7719;SDS011;3902;49.474;8.616;2023-12-14T05:52:39;12.80;;;11.10;;
7719;SDS011;3902;49.474;8.616;2023-12-14T05:55:07;11.33;;;10.13;;
7719;SDS011;3902;49.474;8.616;2023-12-14T05:57:36;11.27;;;10.20;;
7719;SDS011;3902;49.474;8.616;2023-12-14T06:00:02;11.27;;;10.07;;
7719;SDS011;3902;49.474;8.616;2023-12-14T06:02:32;11.13;;;9.93;;
7719;SDS011;3902;49.474;8.616;2023-12-14T06:04:57;10.70;;;9.60;;
7719;SDS011;3902;49.474;8.616;2023-12-14T06:07:23;11.13;;;10.13;;
7719;SDS011;3902;49.474;8.616;2023-12-14T06:09:49;12.27;;;11.07;;
7719;SDS011;3902;49.474;8.616;2023-12-14T06:12:15;11.70;;;10.33;;
7719;SDS011;3902;49.474;8.616;2023-12-14T06:14:40;14.63;;;11.60;;
7719;SDS011;3902;49.474;8.616;2023-12-14T06:17:06;11.60;;;10.50;;
7719;SDS011;3902;49.474;8.616;2023-12-14T06:19:32;11.47;;;10.37;;
7719;SDS011;3902;49.474;8.616;2023-12-14T06:21:57;12.67;;;11.37;;
7719;SDS011;3902;49.474;8.616;2023-12-14T06:24:23;11.37;;;10.30;;
7719;SDS011;3902;49.474;8.616;2023-12-14T06:26:48;13.37;;;10.33;;
7719;SDS011;3902;49.474;8.616;2023-12-14T06:29:14;13.57;;;11.07;;
7719;SDS011;3902;49.474;8.616;2023-12-14T06:31:39;12.00;;;10.90;;
7719;SDS011;3902;49.474;8.616;2023-12-14T06:34:05;11.47;;;10.33;;
7719;SDS011;3902;49.474;8.616;2023-12-14T06:36:31;12.00;;;10.57;;
7719;SDS011;3902;49.474;8.616;2023-12-14T06:38:57;11.07;;;9.97;;
7719;SDS011;3902;49.474;8.616;2023-12-14T06:41:24;11.47;;;10.40;;
7719;SDS011;3902;49.474;8.616;2023-12-14T06:43:50;13.00;;;11.50;;
7719;SDS011;3902;49.474;8.616;2023-12-14T06:46:15;12.97;;;10.83;;
7719;SDS011;3902;49.474;8.616;2023-12-14T06:48:41;12.13;;;10.90;;
7719;SDS011;3902;49.474;8.616;2023-12-14T06:51:07;12.17;;;10.97;;
7719;SDS011;3902;49.474;8.616;2023-12-14T06:53:33;12.63;;;11.33;;
7719;SDS011;3902;49.474;8.616;2023-12-14T06:56:00;13.17;;;11.63;;
7719;SDS011;3902;49.474;8.616;2023-12-14T06:58:25;12.30;;;11.10;;
7719;SDS011;3902;49.474;8.616;2023-12-14T07:00:51;13.00;;;11.70;;
7719;SDS011;3902;49.474;8.616;2023-12-14T07:03:16;13.73;;;12.33;;
7719;SDS011;3902;49.474;8.616;2023-12-14T07:05:42;12.70;;;11.50;;
7719;SDS011;3902;49.474;8.616;2023-12-14T07:08:07;12.67;;;11.33;;
7719;SDS011;3902;49.474;8.616;2023-12-14T07:10:33;11.47;;;10.37;;
7719;SDS011;3902;49.474;8.616;2023-12-14T07:12:59;13.20;;;11.50;;
7719;SDS011;3902;49.474;8.616;2023-12-14T07:15:24;12.47;;;11.20;;
7719;SDS011;3902;49.474;8.616;2023-12-14T07:17:50;13.10;;;11.90;;
7719;SDS011;3902;49.474;8.616;2023-12-14T07:20:15;13.13;;;11.80;;
7719;SDS011;3902;49.474;8.616;2023-12-14T07:22:41;13.87;;;12.47;;
7719;SDS011;3902;49.474;8.616;2023-12-14T07:25:07;12.10;;;10.90;;
7719;SDS011;3902;49.474;8.616;2023-12-14T07:27:33;12.57;;;11.27;;
7719;SDS011;3902;49.474;8.616;2023-12-14T07:29:58;13.30;;;11.73;;
7719;SDS011;3902;49.474;8.616;2023-12-14T07:32:24;12.30;;;11.10;;
7719;SDS011;3902;49.474;8.616;2023-12-14T07:34:49;12.90;;;11.60;;
7719;SDS011;3902;49.474;8.616;2023-12-14T07:37:15;11.60;;;10.50;;
7719;SDS011;3902;49.474;8.616;2023-12-14T07:39:40;11.37;;;10.27;;
7719;SDS011;3902;49.474;8.616;2023-12-14T07:42:06;12.23;;;11.03;;
7719;SDS011;3902;49.474;8.616;2023-12-14T07:44:31;12.07;;;10.87;;
7719;SDS011;3902;49.474;8.616;2023-12-14T07:46:59;11.63;;;10.63;;
7719;SDS011;3902;49.474;8.616;2023-12-14T07:49:25;12.33;;;11.13;;
7719;SDS011;3902;49.474;8.616;2023-12-14T07:51:51;15.33;;;12.10;;
7719;SDS011;3902;49.474;8.616;2023-12-14T07:54:16;11.93;;;10.77;;
7719;SDS011;3902;49.474;8.616;2023-12-14T07:56:43;13.43;;;11.53;;
7719;SDS011;3902;49.474;8.616;2023-12-14T07:59:08;12.60;;;11.30;;
7719;SDS011;3902;49.474;8.616;2023-12-14T08:01:34;12.43;;;11.13;;
7719;SDS011;3902;49.474;8.616;2023-12-14T08:04:01;13.10;;;11.80;;
7719;SDS011;3902;49.474;8.616;2023-12-14T08:06:27;12.90;;;11.60;;
7719;SDS011;3902;49.474;8.616;2023-12-14T08:08:52;13.70;;;12.20;;
7719;SDS011;3902;49.474;8.616;2023-12-14T08:11:18;13.63;;;12.23;;
7719;SDS011;3902;49.474;8.616;2023-12-14T08:13:43;13.20;;;11.80;;
7719;SDS011;3902;49.474;8.616;2023-12-14T08:16:09;11.93;;;10.77;;
7719;SDS011;3902;49.474;8.616;2023-12-14T08:18:36;15.93;;;13.23;;
7719;SDS011;3902;49.474;8.616;2023-12-14T08:21:02;14.13;;;12.70;;
7719;SDS011;3902;49.474;8.616;2023-12-14T08:23:28;13.97;;;12.57;;
7719;SDS011;3902;49.474;8.616;2023-12-14T08:25:56;13.17;;;11.97;;
7719;SDS011;3902;49.474;8.616;2023-12-14T08:28:22;13.50;;;12.10;;
7719;SDS011;3902;49.474;8.616;2023-12-14T08:30:48;13.67;;;12.30;;
7719;SDS011;3902;49.474;8.616;2023-12-14T08:33:14;13.10;;;11.80;;
7719;SDS011;3902;49.474;8.616;2023-12-14T08:35:40;12.30;;;11.10;;
7719;SDS011;3902;49.474;8.616;2023-12-14T08:38:06;14.27;;;12.77;;
7719;SDS011;3902;49.474;8.616;2023-12-14T08:40:31;13.10;;;11.87;;
7719;SDS011;3902;49.474;8.616;2023-12-14T08:42:57;13.33;;;11.97;;
7719;SDS011;3902;49.474;8.616;2023-12-14T08:45:22;14.03;;;12.63;;
7719;SDS011;3902;49.474;8.616;2023-12-14T08:47:48;12.93;;;11.63;;
7719;SDS011;3902;49.474;8.616;2023-12-14T08:50:14;13.03;;;11.73;;
7719;SDS011;3902;49.474;8.616;2023-12-14T08:52:39;13.50;;;12.20;;
7719;SDS011;3902;49.474;8.616;2023-12-14T08:55:05;13.37;;;11.97;;
7719;SDS011;3902;49.474;8.616;2023-12-14T08:57:31;14.57;;;12.27;;
7719;SDS011;3902;49.474;8.616;2023-12-14T08:59:56;12.90;;;11.70;;
7719;SDS011;3902;49.474;8.616;2023-12-14T09:02:22;13.20;;;11.90;;
7719;SDS011;3902;49.474;8.616;2023-12-14T09:04:47;12.47;;;11.27;;
7719;SDS011;3902;49.474;8.616;2023-12-14T09:07:13;13.80;;;12.30;;
7719;SDS011;3902;49.474;8.616;2023-12-14T09:09:39;13.77;;;12.23;;
7719;SDS011;3902;49.474;8.616;2023-12-14T09:12:05;14.30;;;12.00;;
7719;SDS011;3902;49.474;8.616;2023-12-14T09:14:30;14.07;;;12.60;;
7719;SDS011;3902;49.474;8.616;2023-12-14T09:16:56;13.37;;;11.83;;
7719;SDS011;3902;49.474;8.616;2023-12-14T09:19:22;13.37;;;12.07;;
7719;SDS011;3902;49.474;8.616;2023-12-14T09:21:47;13.53;;;12.13;;
7719;SDS011;3902;49.474;8.616;2023-12-14T09:24:13;13.90;;;12.40;;
7719;SDS011;3902;49.474;8.616;2023-12-14T09:26:38;12.87;;;11.57;;
7719;SDS011;3902;49.474;8.616;2023-12-14T09:29:04;13.93;;;12.43;;
7719;SDS011;3902;49.474;8.616;2023-12-14T09:31:30;12.80;;;11.53;;
7719;SDS011;3902;49.474;8.616;2023-12-14T09:33:55;14.30;;;12.10;;
7719;SDS011;3902;49.474;8.616;2023-12-14T09:36:21;13.00;;;11.70;;
7719;SDS011;3902;49.474;8.616;2023-12-14T09:38:46;14.17;;;12.30;;
7719;SDS011;3902;49.474;8.616;2023-12-14T09:41:12;14.03;;;12.53;;
7719;SDS011;3902;49.474;8.616;2023-12-14T09:43:38;14.63;;;12.63;;
7719;SDS011;3902;49.474;8.616;2023-12-14T09:46:03;14.13;;;12.00;;
7719;SDS011;3902;49.474;8.616;2023-12-14T09:48:29;12.93;;;11.73;;
7719;SDS011;3902;49.474;8.616;2023-12-14T09:50:56;13.90;;;12.03;;
7719;SDS011;3902;49.474;8.616;2023-12-14T09:53:22;12.80;;;11.50;;
7719;SDS011;3902;49.474;8.616;2023-12-14T09:55:48;12.83;;;11.53;;
7719;SDS011;3902;49.474;8.616;2023-12-14T09:58:13;11.90;;;10.70;;
7719;SDS011;3902;49.474;8.616;2023-12-14T10:00:39;12.97;;;11.57;;
7719;SDS011;3902;49.474;8.616;2023-12-14T10:03:21;13.87;;;11.20;;
7719;SDS011;3902;49.474;8.616;2023-12-14T10:05:47;14.40;;;12.43;;
7719;SDS011;3902;49.474;8.616;2023-12-14T10:08:14;13.83;;;12.40;;
7719;SDS011;3902;49.474;8.616;2023-12-14T10:10:42;13.53;;;12.23;;
7719;SDS011;3902;49.474;8.616;2023-12-14T10:13:08;14.50;;;13.00;;
7719;SDS011;3902;49.474;8.616;2023-12-14T10:15:44;13.43;;;12.03;;
7719;SDS011;3902;49.474;8.616;2023-12-14T10:18:10;13.00;;;11.67;;
7719;SDS011;3902;49.474;8.616;2023-12-14T10:20:36;15.97;;;13.20;;
7719;SDS011;3902;49.474;8.616;2023-12-14T10:23:03;13.03;;;11.23;;
7719;SDS011;3902;49.474;8.616;2023-12-14T10:25:29;12.43;;;11.23;;
7719;SDS011;3902;49.474;8.616;2023-12-14T10:27:55;12.30;;;11.00;;
7719;SDS011;3902;49.474;8.616;2023-12-14T10:30:22;12.07;;;10.77;;
7719;SDS011;3902;49.474;8.616;2023-12-14T10:32:48;12.07;;;10.70;;
7719;SDS011;3902;49.474;8.616;2023-12-14T10:35:14;11.03;;;9.93;;
7719;SDS011;3902;49.474;8.616;2023-12-14T10:37:41;13.70;;;10.93;;
7719;SDS011;3902;49.474;8.616;2023-12-14T10:40:08;10.93;;;9.83;;
7719;SDS011;3902;49.474;8.616;2023-12-14T10:42:37;11.67;;;9.70;;
7719;SDS011;3902;49.474;8.616;2023-12-14T10:45:06;11.23;;;9.90;;
7719;SDS011;3902;49.474;8.616;2023-12-14T10:47:35;10.63;;;9.23;;
7719;SDS011;3902;49.474;8.616;2023-12-14T10:50:02;11.23;;;9.90;;
7719;SDS011;3902;49.474;8.616;2023-12-14T10:52:30;12.70;;;10.60;;
7719;SDS011;3902;49.474;8.616;2023-12-14T10:55:00;10.43;;;9.33;;
7719;SDS011;3902;49.474;8.616;2023-12-14T10:57:30;10.87;;;9.73;;
7719;SDS011;3902;49.474;8.616;2023-12-14T10:59:59;10.40;;;9.30;;
7719;SDS011;3902;49.474;8.616;2023-12-14T11:02:26;13.37;;;10.47;;
7719;SDS011;3902;49.474;8.616;2023-12-14T11:04:54;10.13;;;9.13;;
7719;SDS011;3902;49.474;8.616;2023-12-14T11:10:10;10.07;;;9.00;;
7719;SDS011;3902;49.474;8.616;2023-12-14T11:12:36;9.20;;;8.30;;
7719;SDS011;3902;49.474;8.616;2023-12-14T11:15:03;9.77;;;8.67;;
7719;SDS011;3902;49.474;8.616;2023-12-14T11:17:30;11.20;;;9.63;;
7719;SDS011;3902;49.474;8.616;2023-12-14T11:19:55;10.93;;;9.40;;
7719;SDS011;3902;49.474;8.616;2023-12-14T11:22:24;10.53;;;9.10;;
7719;SDS011;3902;49.474;8.616;2023-12-14T11:24:53;10.73;;;8.70;;
7719;SDS011;3902;49.474;8.616;2023-12-14T11:27:20;10.70;;;8.63;;
7719;SDS011;3902;49.474;8.616;2023-12-14T11:29:51;10.90;;;9.00;;
7719;SDS011;3902;49.474;8.616;2023-12-14T11:32:18;8.70;;;7.80;;
7719;SDS011;3902;49.474;8.616;2023-12-14T11:34:45;9.10;;;8.17;;
7719;SDS011;3902;49.474;8.616;2023-12-14T11:37:12;10.03;;;8.97;;
7719;SDS011;3902;49.474;8.616;2023-12-14T11:39:37;9.80;;;8.17;;
7719;SDS011;3902;49.474;8.616;2023-12-14T11:42:04;11.07;;;9.10;;
7719;SDS011;3902;49.474;8.616;2023-12-14T11:44:33;9.43;;;8.53;;
7719;SDS011;3902;49.474;8.616;2023-12-14T11:46:58;7.60;;;6.80;;
7719;SDS011;3902;49.474;8.616;2023-12-14T11:49:25;9.40;;;8.30;;
7719;SDS011;3902;49.474;8.616;2023-12-14T11:51:52;11.47;;;7.93;;
7719;SDS011;3902;49.474;8.616;2023-12-14T11:54:19;9.70;;;7.77;;
7719;SDS011;3902;49.474;8.616;2023-12-14T11:56:46;8.70;;;7.80;;
7719;SDS011;3902;49.474;8.616;2023-12-14T11:59:12;10.63;;;8.20;;
7719;SDS011;3902;49.474;8.616;2023-12-14T12:01:40;9.43;;;8.43;;
7719;SDS011;3902;49.474;8.616;2023-12-14T12:04:19;9.47;;;8.47;;
7719;SDS011;3902;49.474;8.616;2023-12-14T12:06:44;9.77;;;8.77;;
7719;SDS011;3902;49.474;8.616;2023-12-14T12:09:10;9.17;;;8.03;;
7719;SDS011;3902;49.474;8.616;2023-12-14T12:11:37;9.90;;;7.93;;
7719;SDS011;3902;49.474;8.616;2023-12-14T12:14:02;10.13;;;8.50;;
7719;SDS011;3902;49.474;8.616;2023-12-14T12:16:29;8.90;;;7.90;;
7719;SDS011;3902;49.474;8.616;2023-12-14T12:18:56;10.70;;;9.20;;
7719;SDS011;3902;49.474;8.616;2023-12-14T12:21:21;10.40;;;9.40;;
7719;SDS011;3902;49.474;8.616;2023-12-14T12:23:47;9.43;;;8.53;;
7719;SDS011;3902;49.474;8.616;2023-12-14T12:26:12;10.43;;;9.33;;
7719;SDS011;3902;49.474;8.616;2023-12-14T12:28:38;12.17;;;9.80;;
7719;SDS011;3902;49.474;8.616;2023-12-14T12:31:03;11.20;;;10.00;;
7719;SDS011;3902;49.474;8.616;2023-12-14T12:33:29;9.07;;;8.17;;
7719;SDS011;3902;49.474;8.616;2023-12-14T12:35:55;10.53;;;8.80;;
7719;SDS011;3902;49.474;8.616;2023-12-14T12:38:20;11.40;;;9.20;;
7719;SDS011;3902;49.474;8.616;2023-12-14T12:40:46;10.03;;;8.97;;
7719;SDS011;3902;49.474;8.616;2023-12-14T12:43:12;10.90;;;9.70;;
7719;SDS011;3902;49.474;8.616;2023-12-14T12:45:39;10.03;;;9.03;;
7719;SDS011;3902;49.474;8.616;2023-12-14T12:48:04;9.90;;;8.90;;
7719;SDS011;3902;49.474;8.616;2023-12-14T12:50:31;11.63;;;9.37;;
7719;SDS011;3902;49.474;8.616;2023-12-14T12:52:57;11.10;;;9.33;;
7719;SDS011;3902;49.474;8.616;2023-12-14T12:55:23;10.50;;;9.50;;
7719;SDS011;3902;49.474;8.616;2023-12-14T12:57:48;10.30;;;9.30;;
7719;SDS011;3902;49.474;8.616;2023-12-14T13:00:14;11.57;;;10.37;;
7719;SDS011;3902;49.474;8.616;2023-12-14T13:02:40;13.00;;;9.73;;
7719;SDS011;3902;49.474;8.616;2023-12-14T13:05:07;12.03;;;10.67;;
7719;SDS011;3902;49.474;8.616;2023-12-14T13:07:34;11.27;;;10.10;;
7719;SDS011;3902;49.474;8.616;2023-12-14T13:10:00;11.23;;;10.07;;
7719;SDS011;3902;49.474;8.616;2023-12-14T13:12:25;11.87;;;10.67;;
7719;SDS011;3902;49.474;8.616;2023-12-14T13:14:51;11.30;;;10.10;;
7719;SDS011;3902;49.474;8.616;2023-12-14T13:17:16;10.73;;;9.63;;
7719;SDS011;3902;49.474;8.616;2023-12-14T13:19:43;11.57;;;10.33;;
7719;SDS011;3902;49.474;8.616;2023-12-14T13:22:09;11.77;;;10.50;;
7719;SDS011;3902;49.474;8.616;2023-12-14T13:24:36;11.33;;;10.23;;
7719;SDS011;3902;49.474;8.616;2023-12-14T13:27:02;11.10;;;10.00;;
7719;SDS011;3902;49.474;8.616;2023-12-14T13:29:28;11.50;;;10.40;;
7719;SDS011;3902;49.474;8.616;2023-12-14T13:31:56;12.30;;;10.47;;
7719;SDS011;3902;49.474;8.616;2023-12-14T13:34:21;11.50;;;10.30;;
7719;SDS011;3902;49.474;8.616;2023-12-14T13:36:47;11.53;;;10.20;;
7719;SDS011;3902;49.474;8.616;2023-12-14T13:39:12;11.30;;;10.10;;
7719;SDS011;3902;49.474;8.616;2023-12-14T13:41:38;11.10;;;10.00;;
7719;SDS011;3902;49.474;8.616;2023-12-14T13:44:03;11.50;;;10.30;;
7719;SDS011;3902;49.474;8.616;2023-12-14T13:46:29;10.97;;;9.67;;
7719;SDS011;3902;49.474;8.616;2023-12-14T13:48:55;10.30;;;9.20;;
7719;SDS011;3902;49.474;8.616;2023-12-14T13:51:20;11.10;;;9.67;;
7719;SDS011;3902;49.474;8.616;2023-12-14T13:53:46;11.47;;;10.00;;
7719;SDS011;3902;49.474;8.616;2023-12-14T13:56:11;11.10;;;10.00;;
7719;SDS011;3902;49.474;8.616;2023-12-14T13:58:37;11.00;;;9.90;;
7719;SDS011;3902;49.474;8.616;2023-12-14T14:01:03;10.70;;;9.60;;
7719;SDS011;3902;49.474;8.616;2023-12-14T14:03:32;11.77;;;10.57;;
7719;SDS011;3902;49.474;8.616;2023-12-14T14:05:58;11.40;;;10.03;;
7719;SDS011;3902;49.474;8.616;2023-12-14T14:08:24;12.63;;;10.37;;
7719;SDS011;3902;49.474;8.616;2023-12-14T14:10:49;10.77;;;9.67;;
7719;SDS011;3902;49.474;8.616;2023-12-14T14:13:15;11.60;;;10.40;;
7719;SDS011;3902;49.474;8.616;2023-12-14T14:15:40;11.10;;;9.70;;
7719;SDS011;3902;49.474;8.616;2023-12-14T14:18:06;11.17;;;9.90;;
7719;SDS011;3902;49.474;8.616;2023-12-14T14:20:31;10.80;;;9.63;;
7719;SDS011;3902;49.474;8.616;2023-12-14T14:22:57;10.50;;;8.83;;
7719;SDS011;3902;49.474;8.616;2023-12-14T14:25:24;10.97;;;9.83;;
7719;SDS011;3902;49.474;8.616;2023-12-14T14:27:50;10.07;;;9.03;;
7719;SDS011;3902;49.474;8.616;2023-12-14T14:30:16;11.63;;;8.93;;
7719;SDS011;3902;49.474;8.616;2023-12-14T14:32:41;9.20;;;8.30;;
7719;SDS011;3902;49.474;8.616;2023-12-14T14:35:07;8.87;;;7.97;;
7719;SDS011;3902;49.474;8.616;2023-12-14T14:37:33;10.77;;;9.17;;
7719;SDS011;3902;49.474;8.616;2023-12-14T14:39:59;8.40;;;7.45;;
7719;SDS011;3902;49.474;8.616;2023-12-14T14:42:25;8.53;;;7.63;;
7719;SDS011;3902;49.474;8.616;2023-12-14T14:44:50;8.63;;;7.67;;
7719;SDS011;3902;49.474;8.616;2023-12-14T14:47:16;8.90;;;7.53;;
7719;SDS011;3902;49.474;8.616;2023-12-14T14:49:43;7.77;;;7.00;;
7719;SDS011;3902;49.474;8.616;2023-12-14T14:52:08;7.90;;;7.10;;
7719;SDS011;3902;49.474;8.616;2023-12-14T14:54:34;8.07;;;6.83;;
7719;SDS011;3902;49.474;8.616;2023-12-14T14:56:59;8.93;;;7.57;;